createdAt,value
2018-11-07T00:00:10.258Z,101.17
2018-11-07T00:02:39.408Z,91.60
2018-11-07T00:05:08.490Z,101.23
2018-11-07T00:07:37.636Z,94.57
2018-11-07T00:10:08.153Z,100.07
2018-11-07T00:12:37.319Z,99.73
2018-11-07T00:15:08.683Z,97.43
2018-11-07T00:17:37.863Z,103.00
2018-11-07T00:20:09.151Z,90.87
2018-11-07T00:22:38.462Z,100.43
2018-11-07T00:25:08.411Z,104.60
2018-11-07T00:27:37.713Z,103.00
2018-11-07T00:30:08.134Z,98.80
2018-11-07T00:32:37.353Z,100.37
2018-11-07T00:35:07.923Z,100.27
2018-11-07T00:37:36.966Z,98.20
2018-11-07T00:40:06.067Z,105.23
2018-11-07T00:42:35.175Z,84.33
2018-11-07T00:45:04.412Z,98.90
2018-11-07T00:47:33.535Z,106.27
2018-11-07T00:50:02.622Z,103.00
2018-11-07T00:52:31.738Z,108.00
2018-11-07T00:55:00.858Z,103.30
2018-11-07T00:57:30.069Z,106.77
2018-11-07T00:59:59.164Z,117.73
2018-11-07T01:02:28.298Z,116.50
2018-11-07T01:04:57.418Z,114.13
2018-11-07T01:07:26.543Z,119.03
2018-11-07T01:09:55.622Z,117.87
2018-11-07T01:12:24.790Z,115.80
2018-11-07T01:14:53.940Z,120.87
2018-11-07T01:17:23.032Z,116.17
2018-11-07T01:19:52.137Z,141.03
2018-11-07T01:22:21.422Z,121.30
2018-11-07T01:24:50.498Z,122.23
2018-11-07T01:27:19.575Z,122.07
2018-11-07T01:29:48.681Z,128.43
2018-11-07T01:32:17.759Z,112.10
2018-11-07T01:34:46.838Z,119.53
2018-11-07T01:37:16.025Z,122.60
2018-11-07T01:39:45.120Z,118.43
2018-11-07T01:42:14.257Z,112.50
2018-11-07T01:44:43.346Z,122.67
2018-11-07T01:47:12.494Z,117.30
2018-11-07T01:49:41.593Z,107.73
2018-11-07T01:52:10.719Z,106.63
2018-11-07T01:54:39.862Z,110.50
2018-11-07T01:57:08.974Z,112.73
2018-11-07T01:59:38.100Z,112.27
2018-11-07T02:02:07.290Z,100.37
2018-11-07T02:04:36.448Z,101.67
2018-11-07T02:07:06.108Z,104.70
2018-11-07T02:09:35.244Z,104.63
2018-11-07T02:12:04.403Z,115.30
2018-11-07T02:14:33.549Z,99.73
2018-11-07T02:17:02.636Z,101.10
2018-11-07T02:19:31.774Z,111.60
2018-11-07T02:22:00.898Z,106.63
2018-11-07T02:24:30.017Z,113.07
2018-11-07T02:26:59.287Z,109.47
2018-11-07T02:29:28.474Z,112.93
2018-11-07T02:31:57.594Z,103.23
2018-11-07T02:34:26.692Z,104.03
2018-11-07T02:36:55.841Z,107.73
2018-11-07T02:39:24.970Z,112.40
2018-11-07T02:41:54.196Z,112.23
2018-11-07T02:44:23.338Z,98.00
2018-11-07T02:46:52.439Z,119.90
2018-11-07T02:49:21.591Z,113.00
2018-11-07T02:51:50.713Z,98.77
2018-11-07T02:54:19.907Z,115.90
2018-11-07T02:56:49.024Z,104.27
2018-11-07T02:59:18.210Z,94.30
2018-11-07T03:01:47.315Z,105.13
2018-11-07T03:04:16.503Z,101.80
2018-11-07T03:06:45.625Z,105.60
2018-11-07T03:09:15.023Z,98.30
2018-11-07T03:11:44.180Z,103.57
2018-11-07T03:14:13.354Z,90.57
2018-11-07T03:16:42.468Z,97.33
2018-11-07T03:19:11.556Z,82.50
2018-11-07T03:21:40.665Z,93.83
2018-11-07T03:24:09.773Z,99.17
2018-11-07T03:26:38.890Z,96.87
2018-11-07T03:29:08.012Z,94.40
2018-11-07T03:31:37.116Z,99.40
2018-11-07T03:34:06.291Z,87.70
2018-11-07T03:36:35.457Z,96.47
2018-11-07T03:39:08.185Z,101.73
2018-11-07T03:41:37.333Z,82.60
2018-11-07T03:44:06.780Z,86.80
2018-11-07T03:46:35.915Z,107.37
2018-11-07T03:49:05.560Z,87.50
2018-11-07T03:51:34.723Z,92.63
2018-11-07T03:54:03.898Z,82.70
2018-11-07T03:56:33.009Z,88.33
2018-11-07T03:59:02.118Z,85.87
2018-11-07T04:01:31.269Z,87.33
2018-11-07T04:04:00.433Z,87.57
2018-11-07T04:06:29.565Z,89.87
2018-11-07T04:08:58.712Z,82.77
2018-11-07T04:11:27.845Z,71.33
2018-11-07T04:13:56.935Z,86.17
2018-11-07T04:16:26.055Z,88.43
2018-11-07T04:18:55.154Z,81.00
2018-11-07T04:21:24.265Z,74.33
2018-11-07T04:24:01.848Z,77.10
2018-11-07T04:26:32.274Z,75.73
2018-11-07T04:29:01.350Z,83.50
2018-11-07T04:31:30.851Z,74.33
2018-11-07T04:34:00.000Z,70.23
2018-11-07T04:36:29.108Z,74.67
2018-11-07T04:38:58.287Z,70.93
2018-11-07T04:41:27.316Z,77.20
2018-11-07T04:43:56.420Z,72.70
2018-11-07T04:46:25.525Z,73.27
2018-11-07T04:48:54.683Z,81.50
2018-11-07T04:51:23.845Z,80.00
2018-11-07T04:53:52.938Z,74.03
2018-11-07T04:56:22.285Z,62.10
2018-11-07T04:58:51.672Z,155.50
2018-11-07T05:01:20.833Z,66.80
2018-11-07T05:03:49.986Z,108.33
2018-11-07T05:06:19.157Z,87.90
2018-11-07T05:08:48.378Z,65.83
2018-11-07T05:11:17.389Z,56.77
2018-11-07T05:13:46.497Z,47.70
2018-11-07T05:16:15.593Z,58.57
2018-11-07T05:18:44.761Z,51.90
2018-11-07T05:21:13.932Z,93.70
2018-11-07T05:23:42.995Z,43.97
2018-11-07T05:26:12.106Z,46.90
2018-11-07T05:28:41.205Z,49.40
2018-11-07T05:31:10.270Z,52.00
2018-11-07T05:33:39.362Z,52.13
2018-11-07T05:36:08.874Z,48.97
2018-11-07T05:38:38.000Z,50.63
2018-11-07T05:41:07.267Z,49.33
2018-11-07T05:43:36.320Z,46.70
2018-11-07T05:46:06.045Z,48.70
2018-11-07T05:48:35.197Z,51.30
2018-11-07T05:51:04.317Z,50.57
2018-11-07T05:53:33.512Z,45.70
2018-11-07T05:56:02.629Z,58.43
2018-11-07T05:58:31.741Z,56.70
2018-11-07T06:01:00.930Z,70.33
2018-11-07T06:03:30.066Z,69.13
2018-11-07T06:05:59.188Z,72.10
2018-11-07T06:08:28.319Z,60.20
2018-11-07T06:10:57.428Z,61.90
2018-11-07T06:13:26.524Z,46.37
2018-11-07T06:15:55.721Z,69.87
2018-11-07T06:18:24.818Z,43.70
2018-11-07T06:20:53.962Z,50.50
2018-11-07T06:23:23.154Z,56.93
2018-11-07T06:25:52.280Z,49.50
2018-11-07T06:28:21.462Z,55.57
2018-11-07T06:30:50.603Z,57.17
2018-11-07T06:33:19.721Z,60.77
2018-11-07T06:35:48.886Z,55.00
2018-11-07T06:38:17.997Z,52.47
2018-11-07T06:40:47.192Z,55.63
2018-11-07T06:43:16.350Z,65.30
2018-11-07T06:45:45.465Z,64.27
2018-11-07T06:48:14.631Z,60.10
2018-11-07T06:50:43.725Z,55.10
2018-11-07T06:53:12.912Z,61.07
2018-11-07T06:55:42.039Z,55.30
2018-11-07T06:58:11.191Z,60.20
2018-11-07T07:00:40.307Z,55.53
2018-11-07T07:03:09.534Z,54.27
2018-11-07T07:05:38.636Z,63.23
2018-11-07T07:08:07.751Z,54.37
2018-11-07T07:10:36.949Z,50.20
2018-11-07T07:13:06.254Z,55.60
2018-11-07T07:15:35.409Z,58.13
2018-11-07T07:18:04.536Z,60.47
2018-11-07T07:20:33.718Z,54.77
2018-11-07T07:23:02.830Z,60.43
2018-11-07T07:25:32.026Z,51.20
2018-11-07T07:28:01.066Z,49.33
2018-11-07T07:30:30.289Z,43.77
2018-11-07T07:32:59.417Z,45.20
2018-11-07T07:35:28.559Z,45.37
2018-11-07T07:37:57.653Z,44.63
2018-11-07T07:40:26.778Z,43.33
2018-11-07T07:42:55.853Z,45.23
2018-11-07T07:45:25.084Z,43.03
2018-11-07T07:47:54.248Z,53.07
2018-11-07T07:50:23.346Z,55.53
2018-11-07T07:52:52.525Z,54.93
2018-11-07T07:55:21.632Z,46.43
2018-11-07T07:57:50.749Z,54.03
2018-11-07T08:00:20.930Z,50.90
2018-11-07T08:02:51.360Z,47.10
2018-11-07T08:05:20.546Z,51.63
2018-11-07T08:07:49.768Z,48.77
2018-11-07T08:10:20.182Z,46.57
2018-11-07T08:12:49.792Z,52.07
2018-11-07T08:15:19.315Z,51.57
2018-11-07T08:17:48.443Z,54.80
2018-11-07T08:20:18.381Z,53.53
2018-11-07T08:22:48.211Z,52.43
2018-11-07T08:25:17.312Z,44.97
2018-11-07T08:27:46.435Z,42.13
2018-11-07T08:30:18.872Z,47.27
2018-11-07T08:32:48.132Z,48.67
2018-11-07T08:35:17.600Z,51.67
2018-11-07T08:37:47.823Z,47.27
2018-11-07T08:40:20.476Z,45.70
2018-11-07T08:42:49.766Z,43.17
2018-11-07T08:45:18.900Z,38.00
2018-11-07T08:47:48.469Z,41.33
2018-11-07T08:50:18.824Z,29.10
2018-11-07T08:52:48.438Z,30.20
2018-11-07T08:55:18.984Z,25.83
2018-11-07T08:57:48.110Z,24.83
2018-11-07T09:00:19.408Z,25.27
2018-11-07T09:02:48.572Z,23.67
2018-11-07T09:05:18.601Z,22.17
2018-11-07T09:07:48.206Z,24.40
2018-11-07T09:10:21.832Z,24.77
2018-11-07T09:12:50.978Z,20.40
2018-11-07T09:15:21.372Z,23.87
2018-11-07T09:17:50.475Z,20.03
2018-11-07T09:20:20.956Z,20.60
2018-11-07T09:22:50.190Z,19.77
2018-11-07T09:25:19.431Z,22.07
2018-11-07T09:27:48.868Z,20.73
2018-11-07T09:30:20.211Z,21.73
2018-11-07T09:32:49.374Z,20.93
2018-11-07T09:35:18.917Z,26.47
2018-11-07T09:37:48.026Z,28.27
2018-11-07T09:40:19.464Z,25.63
2018-11-07T09:42:49.065Z,28.67
2018-11-07T09:45:19.581Z,26.63
2018-11-07T09:47:49.004Z,29.00
2018-11-07T09:50:18.807Z,32.30
2018-11-07T09:52:47.985Z,30.83
2018-11-07T09:55:18.339Z,27.53
2018-11-07T09:57:47.461Z,28.10
2018-11-07T10:00:18.118Z,27.50
2018-11-07T10:02:47.562Z,28.67
2018-11-07T10:05:17.710Z,27.27
2018-11-07T10:07:46.811Z,31.87
2018-11-07T10:10:21.218Z,27.37
2018-11-07T10:12:50.608Z,32.03
2018-11-07T10:15:20.253Z,29.70
2018-11-07T10:17:49.405Z,33.83
2018-11-07T10:20:19.845Z,32.40
2018-11-07T10:22:49.350Z,31.90
2018-11-07T10:25:18.587Z,29.67
2018-11-07T10:27:48.144Z,37.20
2018-11-07T10:30:18.458Z,26.10
2018-11-07T10:32:48.406Z,25.20
2018-11-07T10:35:17.555Z,32.63
2018-11-07T10:37:46.735Z,32.53
2018-11-07T10:40:18.233Z,32.53
2018-11-07T10:42:47.835Z,39.97
2018-11-07T10:45:17.004Z,36.13
2018-11-07T10:47:46.937Z,31.33
2018-11-07T10:50:17.011Z,36.73
2018-11-07T10:52:46.706Z,39.87
2018-11-07T10:55:16.525Z,31.70
2018-11-07T10:57:45.921Z,28.73
2018-11-07T11:00:21.255Z,33.33
2018-11-07T11:02:55.851Z,30.50
2018-11-07T11:05:25.156Z,32.23
2018-11-07T11:07:54.301Z,34.97
2018-11-07T11:10:23.423Z,30.03
2018-11-07T11:12:52.570Z,30.70
2018-11-07T11:15:21.744Z,29.00
2018-11-07T11:17:50.864Z,37.73
2018-11-07T11:20:19.977Z,29.37
2018-11-07T11:22:49.164Z,27.77
2018-11-07T11:25:18.302Z,28.87
2018-11-07T11:27:47.435Z,31.07
2018-11-07T11:30:16.570Z,24.33
2018-11-07T11:32:45.729Z,26.07
2018-11-07T11:35:14.974Z,27.37
2018-11-07T11:37:44.050Z,25.90
2018-11-07T11:40:14.248Z,21.83
2018-11-07T11:42:44.324Z,20.77
2018-11-07T11:45:15.655Z,23.00
2018-11-07T11:47:45.227Z,21.63
2018-11-07T11:50:17.192Z,23.63
2018-11-07T11:52:47.386Z,22.93
2018-11-07T11:55:16.544Z,23.47
2018-11-07T11:57:46.217Z,22.60
2018-11-07T12:00:18.933Z,19.33
2018-11-07T12:02:48.292Z,20.97
2018-11-07T12:05:18.315Z,18.23
2018-11-07T12:07:47.451Z,22.00
2018-11-07T12:10:17.880Z,18.03
2018-11-07T12:12:48.338Z,20.73
2018-11-07T12:15:18.507Z,24.27
2018-11-07T12:17:47.647Z,34.43
2018-11-07T12:20:16.800Z,24.10
2018-11-07T12:22:45.932Z,18.37
2018-11-07T12:25:15.801Z,20.87
2018-11-07T12:27:45.082Z,21.93
2018-11-07T12:30:17.548Z,23.43
2018-11-07T12:32:47.786Z,17.67
2018-11-07T12:35:17.379Z,21.60
2018-11-07T12:37:46.517Z,19.73
2018-11-07T12:40:16.087Z,23.60
2018-11-07T12:42:45.255Z,21.67
2018-11-07T12:45:15.496Z,25.10
2018-11-07T12:47:44.603Z,25.07
2018-11-07T12:50:16.541Z,29.63
2018-11-07T12:52:46.159Z,23.27
2018-11-07T12:55:15.474Z,21.90
2018-11-07T12:57:44.648Z,24.50
2018-11-07T13:00:19.847Z,21.03
2018-11-07T13:02:48.963Z,19.93
2018-11-07T13:05:19.026Z,20.80
2018-11-07T13:07:48.839Z,20.20
2018-11-07T13:10:19.264Z,19.97
2018-11-07T13:12:48.993Z,19.20
2018-11-07T13:15:18.380Z,18.90
2018-11-07T13:17:48.301Z,27.93
2018-11-07T13:20:19.320Z,19.20
2018-11-07T13:22:49.843Z,25.63
2018-11-07T13:25:19.267Z,24.43
2018-11-07T13:27:48.373Z,19.50
2018-11-07T13:30:18.879Z,18.80
2018-11-07T13:32:48.009Z,20.63
2018-11-07T13:35:17.827Z,27.97
2018-11-07T13:37:47.819Z,26.07
2018-11-07T13:40:18.305Z,20.90
2018-11-07T13:42:47.892Z,22.23
2018-11-07T13:45:18.559Z,19.90
2018-11-07T13:47:48.724Z,19.60
2018-11-07T13:50:18.395Z,23.67
2018-11-07T13:52:47.543Z,22.20
2018-11-07T13:55:16.640Z,23.17
2018-11-07T13:57:49.124Z,24.80
2018-11-07T14:00:21.548Z,26.60
2018-11-07T14:02:51.283Z,25.63
2018-11-07T14:05:20.523Z,26.60
2018-11-07T14:07:49.535Z,20.53
2018-11-07T14:10:19.900Z,28.20
2018-11-07T14:12:49.285Z,28.07
2018-11-07T14:15:18.490Z,27.60
2018-11-07T14:17:47.705Z,20.97
2018-11-07T14:20:16.893Z,20.57
2018-11-07T14:22:46.093Z,19.80
2018-11-07T14:25:15.570Z,22.03
2018-11-07T14:27:44.832Z,19.03
2018-11-07T14:30:15.636Z,20.37
2018-11-07T14:32:52.564Z,22.10
2018-11-07T14:35:22.194Z,20.17
2018-11-07T14:37:51.704Z,21.73
2018-11-07T14:40:24.431Z,23.63
2018-11-07T14:42:53.594Z,20.77
2018-11-07T14:45:22.721Z,27.03
2018-11-07T14:47:51.934Z,25.73
2018-11-07T14:50:20.972Z,23.47
2018-11-07T14:52:50.076Z,21.53
2018-11-07T14:55:19.213Z,22.47
2018-11-07T14:57:48.351Z,20.93
2018-11-07T15:00:18.058Z,26.43
2018-11-07T15:02:47.449Z,23.90
2018-11-07T15:05:17.582Z,26.10
2018-11-07T15:07:46.783Z,23.13
2018-11-07T15:10:16.696Z,21.00
2018-11-07T15:12:52.447Z,20.70
2018-11-07T15:15:21.568Z,20.73
2018-11-07T15:17:50.665Z,22.27
2018-11-07T15:20:19.823Z,22.47
2018-11-07T15:22:48.948Z,23.57
2018-11-07T15:25:18.338Z,21.40
2018-11-07T15:27:48.159Z,26.00
2018-11-07T15:30:17.847Z,25.40
2018-11-07T15:32:47.273Z,22.23
2018-11-07T15:35:16.379Z,20.03
2018-11-07T15:37:45.494Z,22.97
2018-11-07T15:40:16.814Z,20.60
2018-11-07T15:42:46.452Z,22.63
2018-11-07T15:45:16.763Z,23.23
2018-11-07T15:47:46.050Z,20.67
2018-11-07T15:50:20.457Z,24.13
2018-11-07T15:52:50.045Z,34.07
2018-11-07T15:55:19.160Z,25.97
2018-11-07T15:57:48.300Z,26.07
2018-11-07T16:00:18.386Z,28.40
2018-11-07T16:02:47.514Z,24.77
2018-11-07T16:05:17.305Z,26.30
2018-11-07T16:07:46.464Z,26.40
2018-11-07T16:10:16.110Z,24.97
2018-11-07T16:12:45.319Z,24.00
2018-11-07T16:15:16.219Z,31.40
2018-11-07T16:17:45.537Z,25.20
2018-11-07T16:20:17.182Z,26.97
2018-11-07T16:22:47.001Z,26.50
2018-11-07T16:25:16.037Z,36.80
2018-11-07T16:27:45.486Z,30.93
2018-11-07T16:30:17.148Z,29.53
2018-11-07T16:32:46.269Z,25.47
2018-11-07T16:35:15.856Z,25.40
2018-11-07T16:37:45.033Z,25.87
2018-11-07T16:40:15.476Z,27.70
2018-11-07T16:42:44.984Z,25.90
2018-11-07T16:45:15.138Z,33.03
2018-11-07T16:47:44.372Z,33.23
2018-11-07T16:50:14.628Z,30.37
2018-11-07T16:52:43.802Z,38.93
2018-11-07T16:55:12.938Z,29.17
2018-11-07T16:57:42.116Z,34.93
2018-11-07T17:00:14.081Z,30.00
2018-11-07T17:02:43.823Z,23.33
2018-11-07T17:05:13.814Z,28.90
2018-11-07T17:07:43.104Z,39.20
2018-11-07T17:10:12.916Z,28.47
2018-11-07T17:12:42.017Z,27.93
2018-11-07T17:15:11.178Z,22.10
2018-11-07T17:17:40.350Z,28.83
2018-11-07T17:20:11.647Z,29.03
2018-11-07T17:22:40.808Z,30.43
2018-11-07T17:25:12.882Z,28.20
2018-11-07T17:27:42.443Z,30.77
2018-11-07T17:30:12.861Z,28.57
2018-11-07T17:32:42.024Z,27.60
2018-11-07T17:35:13.073Z,31.17
2018-11-07T17:37:42.633Z,28.60
2018-11-07T17:40:14.785Z,35.30
2018-11-07T17:42:44.215Z,30.40
2018-11-07T17:45:15.557Z,28.50
2018-11-07T17:47:45.077Z,27.70
2018-11-07T17:50:15.347Z,28.53
2018-11-07T17:52:44.527Z,30.47
2018-11-07T17:55:14.781Z,29.57
2018-11-07T17:57:43.920Z,29.10
2018-11-07T18:00:15.102Z,29.07
2018-11-07T18:02:44.604Z,31.30
2018-11-07T18:05:13.738Z,27.40
2018-11-07T18:07:42.953Z,33.50
2018-11-07T18:10:14.444Z,28.80
2018-11-07T18:12:43.973Z,30.07
2018-11-07T18:15:13.365Z,26.93
2018-11-07T18:17:42.458Z,29.90
2018-11-07T18:20:12.877Z,30.30
2018-11-07T18:22:42.041Z,32.20
2018-11-07T18:25:12.513Z,26.20
2018-11-07T18:27:42.029Z,33.10
2018-11-07T18:30:13.358Z,33.87
2018-11-07T18:32:43.176Z,29.67
2018-11-07T18:35:14.252Z,27.47
2018-11-07T18:37:50.017Z,32.53
2018-11-07T18:40:20.393Z,30.33
2018-11-07T18:42:49.517Z,33.00
2018-11-07T18:45:18.585Z,29.80
2018-11-07T18:47:48.177Z,29.93
2018-11-07T18:50:19.776Z,33.83
2018-11-07T18:52:48.807Z,29.53
2018-11-07T18:55:18.361Z,40.90
2018-11-07T18:57:47.849Z,30.87
2018-11-07T19:00:18.262Z,34.70
2018-11-07T19:02:48.095Z,38.10
2018-11-07T19:05:17.234Z,31.57
2018-11-07T19:07:46.321Z,35.20
2018-11-07T19:10:18.211Z,38.00
2018-11-07T19:12:47.953Z,35.73
2018-11-07T19:15:17.555Z,37.77
2018-11-07T19:17:47.487Z,42.60
2018-11-07T19:20:17.247Z,38.70
2018-11-07T19:22:46.360Z,33.97
2018-11-07T19:25:16.834Z,32.10
2018-11-07T19:27:45.927Z,36.77
2018-11-07T19:30:22.953Z,33.00
2018-11-07T19:32:53.062Z,30.17
2018-11-07T19:35:22.628Z,33.27
2018-11-07T19:37:52.344Z,36.73
2018-11-07T19:40:24.003Z,31.63
2018-11-07T19:42:52.997Z,31.70
2018-11-07T19:45:22.713Z,30.37
2018-11-07T19:47:52.092Z,31.83
2018-11-07T19:50:22.236Z,31.17
2018-11-07T19:52:52.706Z,38.40
2018-11-07T19:55:23.937Z,39.03
2018-11-07T19:58:02.515Z,34.07
2018-11-07T20:00:31.676Z,29.03
2018-11-07T20:03:00.776Z,34.70
2018-11-07T20:05:30.689Z,30.20
2018-11-07T20:07:59.861Z,27.83
2018-11-07T20:10:29.065Z,26.00
2018-11-07T20:12:58.159Z,29.87
2018-11-07T20:15:27.316Z,38.37
2018-11-07T20:17:56.476Z,31.67
2018-11-07T20:20:25.630Z,27.53
2018-11-07T20:22:54.921Z,32.70
2018-11-07T20:25:30.803Z,35.63
2018-11-07T20:28:00.209Z,30.93
2018-11-07T20:30:29.379Z,29.87
2018-11-07T20:32:58.608Z,38.00
2018-11-07T20:35:27.884Z,33.23
2018-11-07T20:37:57.110Z,28.07
2018-11-07T20:40:26.333Z,34.03
2018-11-07T20:42:55.513Z,41.37
2018-11-07T20:45:24.640Z,32.87
2018-11-07T20:47:54.734Z,35.70
2018-11-07T20:50:24.051Z,35.67
2018-11-07T20:52:53.706Z,33.20
2018-11-07T20:55:22.844Z,35.03
2018-11-07T20:57:52.174Z,46.00
2018-11-07T21:00:22.468Z,36.13
2018-11-07T21:02:51.773Z,35.60
2018-11-07T21:05:20.890Z,43.60
2018-11-07T21:07:49.968Z,36.40
2018-11-07T21:10:20.396Z,36.13
2018-11-07T21:12:49.900Z,32.60
2018-11-07T21:15:20.870Z,40.20
2018-11-07T21:17:49.972Z,35.77
2018-11-07T21:20:20.432Z,35.20
2018-11-07T21:22:49.498Z,34.10
2018-11-07T21:25:18.625Z,32.03
2018-11-07T21:27:47.703Z,33.03
2018-11-07T21:30:16.843Z,36.30
2018-11-07T21:32:45.932Z,32.43
2018-11-07T21:35:15.076Z,28.67
2018-11-07T21:37:44.115Z,35.10
2018-11-07T21:40:15.573Z,27.50
2018-11-07T21:42:45.311Z,33.50
2018-11-07T21:45:14.989Z,38.37
2018-11-07T21:47:44.411Z,41.30
2018-11-07T21:50:15.653Z,37.57
2018-11-07T21:52:44.755Z,35.00
2018-11-07T21:55:13.990Z,34.67
2018-11-07T21:57:43.139Z,40.40
2018-11-07T22:00:15.916Z,33.30
2018-11-07T22:02:45.278Z,36.27
2018-11-07T22:05:15.026Z,41.33
2018-11-07T22:07:44.180Z,30.23
2018-11-07T22:10:14.450Z,33.93
2018-11-07T22:12:43.557Z,34.57
2018-11-07T22:15:12.674Z,30.87
2018-11-07T22:17:41.788Z,33.30
2018-11-07T22:20:16.449Z,28.67
2018-11-07T22:22:45.880Z,26.67
2018-11-07T22:25:15.285Z,32.10
2018-11-07T22:27:44.436Z,28.13
2018-11-07T22:30:14.969Z,30.80
2018-11-07T22:32:44.095Z,29.57
2018-11-07T22:35:15.571Z,31.33
2018-11-07T22:37:45.453Z,31.37
2018-11-07T22:40:15.907Z,27.70
2018-11-07T22:42:45.020Z,27.40
2018-11-07T22:45:14.612Z,25.80
2018-11-07T22:47:43.728Z,30.37
2018-11-07T22:50:14.024Z,27.57
2018-11-07T22:52:44.021Z,33.60
2018-11-07T22:55:13.149Z,27.10
2018-11-07T22:57:42.312Z,27.77
2018-11-07T23:00:19.040Z,28.93
2018-11-07T23:02:48.907Z,32.03
2018-11-07T23:05:18.297Z,31.03
2018-11-07T23:07:47.704Z,37.60
2018-11-07T23:10:16.813Z,37.57
2018-11-07T23:12:45.908Z,31.97
2018-11-07T23:15:47.763Z,31.63
2018-11-07T23:18:18.391Z,32.90
2018-11-07T23:20:47.806Z,31.30
2018-11-07T23:23:17.454Z,44.20
2018-11-07T23:25:47.144Z,33.53
2018-11-07T23:28:16.258Z,41.63
2018-11-07T23:30:45.365Z,48.33
2018-11-07T23:33:14.524Z,39.87
2018-11-07T23:35:43.648Z,42.87
2018-11-07T23:38:12.796Z,34.80
2018-11-07T23:40:41.923Z,33.67
2018-11-07T23:43:11.060Z,30.90
2018-11-07T23:45:40.193Z,33.30
2018-11-07T23:48:09.329Z,35.40
2018-11-07T23:50:38.442Z,35.73
2018-11-07T23:53:07.598Z,34.73
2018-11-07T23:55:36.698Z,36.50
2018-11-07T23:58:05.925Z,32.23
